sensor_id;sensor_type;location;lat;lon;timestamp;pressure;altitude;pressure_sealevel;temperature;humidity
41800;BME280;27468;47.460;19.034;2023-04-28T00:00:08;100989.81;;;5.66;58.71
41800;BME280;27468;47.460;19.034;2023-04-28T00:02:34;100882.03;;;5.06;58.71
41800;BME280;27468;47.460;19.034;2023-04-28T00:04:59;100979.28;;;5.59;58.27
41800;BME280;27468;47.460;19.034;2023-04-28T00:07:25;100982.75;;;5.57;58.67
41800;BME280;27468;47.460;19.034;2023-04-28T00:09:50;100989.78;;;5.61;58.49
41800;BME280;27468;47.460;19.034;2023-04-28T00:12:16;100927.44;;;5.20;58.51
41800;BME280;27468;47.460;19.034;2023-04-28T00:14:41;100988.84;;;5.54;58.64
41800;BME280;27468;47.460;19.034;2023-04-28T00:17:07;100941.41;;;5.21;58.27
41800;BME280;27468;47.460;19.034;2023-04-28T00:19:34;100916.00;;;5.08;58.08
41800;BME280;27468;47.460;19.034;2023-04-28T00:21:59;100938.81;;;5.24;58.06
41800;BME280;27468;47.460;19.034;2023-04-28T00:24:25;100955.34;;;5.21;58.95
41800;BME280;27468;47.460;19.034;2023-04-28T00:26:50;100934.31;;;5.08;58.90
41800;BME280;27468;47.460;19.034;2023-04-28T00:29:16;100978.09;;;5.30;59.37
41800;BME280;27468;47.460;19.034;2023-04-28T00:31:43;100957.91;;;5.14;59.64
41800;BME280;27468;47.460;19.034;2023-04-28T00:34:08;100972.78;;;5.22;60.10
41800;BME280;27468;47.460;19.034;2023-04-28T00:36:38;100958.78;;;5.14;60.21
41800;BME280;27468;47.460;19.034;2023-04-28T00:39:03;100978.06;;;5.27;60.45
41800;BME280;27468;47.460;19.034;2023-04-28T00:41:29;100923.66;;;4.91;60.22
41800;BME280;27468;47.460;19.034;2023-04-28T00:43:54;100934.97;;;4.90;60.07
41800;BME280;27468;47.460;19.034;2023-04-28T00:46:23;100963.91;;;5.07;60.19
41800;BME280;27468;47.460;19.034;2023-04-28T00:48:49;100960.41;;;5.05;60.89
41800;BME280;27468;47.460;19.034;2023-04-28T00:51:15;100991.88;;;5.14;62.46
41800;BME280;27468;47.460;19.034;2023-04-28T00:53:41;100961.16;;;4.96;61.79
41800;BME280;27468;47.460;19.034;2023-04-28T00:56:08;100983.94;;;5.06;61.38
41800;BME280;27468;47.460;19.034;2023-04-28T00:58:34;100948.00;;;4.87;61.86
41800;BME280;27468;47.460;19.034;2023-04-28T01:01:02;100986.59;;;5.09;62.31
41800;BME280;27468;47.460;19.034;2023-04-28T01:03:28;100940.00;;;4.76;61.89
41800;BME280;27468;47.460;19.034;2023-04-28T01:05:53;100989.19;;;5.08;62.38
41800;BME280;27468;47.460;19.034;2023-04-28T01:08:37;100898.84;;;4.54;62.93
41800;BME280;27468;47.460;19.034;2023-04-28T01:11:03;100944.38;;;4.76;62.46
41800;BME280;27468;47.460;19.034;2023-04-28T01:13:29;100932.00;;;4.62;63.58
41800;BME280;27468;47.460;19.034;2023-04-28T01:15:55;100965.31;;;4.79;63.06
41800;BME280;27468;47.460;19.034;2023-04-28T01:18:21;100979.38;;;4.90;62.90
41800;BME280;27468;47.460;19.034;2023-04-28T01:20:47;100977.63;;;4.89;64.30
41800;BME280;27468;47.460;19.034;2023-04-28T01:23:13;100994.19;;;4.89;63.58
41800;BME280;27468;47.460;19.034;2023-04-28T01:25:39;100975.69;;;4.74;63.64
41800;BME280;27468;47.460;19.034;2023-04-28T01:28:05;100981.81;;;4.76;64.45
41800;BME280;27468;47.460;19.034;2023-04-28T01:30:31;100959.00;;;4.63;63.56
41800;BME280;27468;47.460;19.034;2023-04-28T01:32:56;100962.50;;;4.62;63.71
41800;BME280;27468;47.460;19.034;2023-04-28T01:35:22;100941.50;;;4.56;63.63
41800;BME280;27468;47.460;19.034;2023-04-28T01:37:48;100983.59;;;4.79;63.11
41800;BME280;27468;47.460;19.034;2023-04-28T01:40:13;100986.19;;;4.77;63.62
41800;BME280;27468;47.460;19.034;2023-04-28T01:42:39;100979.91;;;4.64;64.58
41800;BME280;27468;47.460;19.034;2023-04-28T01:45:05;100917.72;;;4.35;63.63
41800;BME280;27468;47.460;19.034;2023-04-28T01:47:30;100910.66;;;4.27;64.08
41800;BME280;27468;47.460;19.034;2023-04-28T01:49:56;100989.44;;;4.62;64.25
41800;BME280;27468;47.460;19.034;2023-04-28T01:52:22;100962.34;;;4.51;64.75
41800;BME280;27468;47.460;19.034;2023-04-28T01:54:49;100966.66;;;4.49;64.45
41800;BME280;27468;47.460;19.034;2023-04-28T01:57:15;100984.19;;;4.58;64.30
41800;BME280;27468;47.460;19.034;2023-04-28T01:59:40;100975.44;;;4.54;64.38
41800;BME280;27468;47.460;19.034;2023-04-28T02:02:06;100975.31;;;4.47;65.29
41800;BME280;27468;47.460;19.034;2023-04-28T02:04:31;100984.00;;;4.44;64.85
41800;BME280;27468;47.460;19.034;2023-04-28T02:06:56;100919.06;;;4.08;64.35
41800;BME280;27468;47.460;19.034;2023-04-28T02:09:23;100883.09;;;3.86;64.36
41800;BME280;27468;47.460;19.034;2023-04-28T02:11:48;100993.59;;;4.47;65.22
41800;BME280;27468;47.460;19.034;2023-04-28T02:14:14;100911.06;;;3.96;65.21
41800;BME280;27468;47.460;19.034;2023-04-28T02:16:39;100917.16;;;3.95;65.11
41800;BME280;27468;47.460;19.034;2023-04-28T02:19:04;100972.31;;;4.21;65.64
41800;BME280;27468;47.460;19.034;2023-04-28T02:21:30;100953.06;;;4.14;65.55
41800;BME280;27468;47.460;19.034;2023-04-28T02:23:56;100903.06;;;3.84;65.13
41800;BME280;27468;47.460;19.034;2023-04-28T02:26:21;100942.56;;;4.10;65.61
41800;BME280;27468;47.460;19.034;2023-04-28T02:28:47;100960.91;;;4.14;64.47
41800;BME280;27468;47.460;19.034;2023-04-28T02:31:13;100913.50;;;3.84;65.09
41800;BME280;27468;47.460;19.034;2023-04-28T02:33:38;100994.97;;;4.22;65.77
41800;BME280;27468;47.460;19.034;2023-04-28T02:36:04;100946.78;;;4.00;65.69
41800;BME280;27468;47.460;19.034;2023-04-28T02:38:30;100962.50;;;4.03;65.78
41800;BME280;27468;47.460;19.034;2023-04-28T02:41:03;100963.38;;;4.05;66.03
41800;BME280;27468;47.460;19.034;2023-04-28T02:43:30;100993.94;;;4.14;66.18
41800;BME280;27468;47.460;19.034;2023-04-28T02:45:56;101017.56;;;4.21;65.48
41800;BME280;27468;47.460;19.034;2023-04-28T02:48:23;100973.75;;;4.01;65.60
41800;BME280;27468;47.460;19.034;2023-04-28T02:50:49;100993.97;;;4.15;66.54
41800;BME280;27468;47.460;19.034;2023-04-28T02:53:14;100983.38;;;4.06;65.94
41800;BME280;27468;47.460;19.034;2023-04-28T02:55:40;100977.25;;;4.01;65.80
41800;BME280;27468;47.460;19.034;2023-04-28T02:58:06;101003.56;;;4.16;65.64
41800;BME280;27468;47.460;19.034;2023-04-28T03:00:31;101003.53;;;4.15;65.38
41800;BME280;27468;47.460;19.034;2023-04-28T03:02:57;100979.72;;;3.92;65.86
41800;BME280;27468;47.460;19.034;2023-04-28T03:05:22;100948.28;;;3.84;65.45
41800;BME280;27468;47.460;19.034;2023-04-28T03:07:48;100936.72;;;3.70;65.72
41800;BME280;27468;47.460;19.034;2023-04-28T03:10:13;100949.84;;;3.75;66.10
41800;BME280;27468;47.460;19.034;2023-04-28T03:12:39;100982.22;;;3.86;66.47
41800;BME280;27468;47.460;19.034;2023-04-28T03:15:04;100992.66;;;3.86;66.27
41800;BME280;27468;47.460;19.034;2023-04-28T03:17:32;101011.97;;;3.97;65.90
41800;BME280;27468;47.460;19.034;2023-04-28T03:19:58;101003.19;;;3.92;66.77
41800;BME280;27468;47.460;19.034;2023-04-28T03:22:23;101011.00;;;3.92;66.17
41800;BME280;27468;47.460;19.034;2023-04-28T03:24:49;100953.88;;;3.57;66.45
41800;BME280;27468;47.460;19.034;2023-04-28T03:27:14;101018.09;;;3.99;66.37
41800;BME280;27468;47.460;19.034;2023-04-28T03:29:40;101023.31;;;3.99;66.12
41800;BME280;27468;47.460;19.034;2023-04-28T03:32:05;101015.22;;;3.84;66.88
41800;BME280;27468;47.460;19.034;2023-04-28T03:34:30;101017.88;;;3.87;66.48
41800;BME280;27468;47.460;19.034;2023-04-28T03:36:56;100930.22;;;3.44;65.92
41800;BME280;27468;47.460;19.034;2023-04-28T03:39:21;100989.00;;;3.76;65.97
41800;BME280;27468;47.460;19.034;2023-04-28T03:41:47;101021.56;;;3.98;66.03
41800;BME280;27468;47.460;19.034;2023-04-28T03:44:12;101032.00;;;3.98;66.30
41800;BME280;27468;47.460;19.034;2023-04-28T03:46:37;101002.16;;;3.84;65.82
41800;BME280;27468;47.460;19.034;2023-04-28T03:49:04;100959.19;;;3.62;65.95
41800;BME280;27468;47.460;19.034;2023-04-28T03:51:30;100964.53;;;3.70;65.74
41800;BME280;27468;47.460;19.034;2023-04-28T03:53:57;100985.66;;;3.83;66.01
41800;BME280;27468;47.460;19.034;2023-04-28T03:56:22;100975.97;;;3.78;66.32
41800;BME280;27468;47.460;19.034;2023-04-28T03:58:48;100996.22;;;3.91;66.22
41800;BME280;27468;47.460;19.034;2023-04-28T04:01:13;101004.19;;;4.00;66.62
41800;BME280;27468;47.460;19.034;2023-04-28T04:03:39;101029.69;;;4.18;66.89
41800;BME280;27468;47.460;19.034;2023-04-28T04:06:05;100961.34;;;3.86;66.94
41800;BME280;27468;47.460;19.034;2023-04-28T04:08:31;101003.50;;;4.12;66.38
41800;BME280;27468;47.460;19.034;2023-04-28T04:10:57;101040.44;;;4.38;65.89
41800;BME280;27468;47.460;19.034;2023-04-28T04:13:23;101029.19;;;4.40;65.77
41800;BME280;27468;47.460;19.034;2023-04-28T04:15:48;101029.25;;;4.45;66.10
41800;BME280;27468;47.460;19.034;2023-04-28T04:18:14;101019.63;;;4.41;66.00
41800;BME280;27468;47.460;19.034;2023-04-28T04:20:40;101007.41;;;4.40;66.33
41800;BME280;27468;47.460;19.034;2023-04-28T04:23:05;100999.63;;;4.43;65.72
41800;BME280;27468;47.460;19.034;2023-04-28T04:25:31;100973.50;;;4.41;65.89
41800;BME280;27468;47.460;19.034;2023-04-28T04:27:57;100963.47;;;4.72;65.83
41800;BME280;27468;47.460;19.034;2023-04-28T04:30:23;101027.38;;;5.72;64.02
41800;BME280;27468;47.460;19.034;2023-04-28T04:32:48;101023.59;;;6.37;62.75
41800;BME280;27468;47.460;19.034;2023-04-28T04:35:14;101018.75;;;7.02;59.12
41800;BME280;27468;47.460;19.034;2023-04-28T04:37:39;101029.44;;;7.65;57.32
41800;BME280;27468;47.460;19.034;2023-04-28T04:40:06;101020.75;;;8.23;55.60
41800;BME280;27468;47.460;19.034;2023-04-28T04:42:31;101029.47;;;8.77;53.76
41800;BME280;27468;47.460;19.034;2023-04-28T04:44:57;100979.53;;;8.80;52.46
41800;BME280;27468;47.460;19.034;2023-04-28T04:47:22;101006.72;;;8.69;51.87
41800;BME280;27468;47.460;19.034;2023-04-28T04:49:48;100976.13;;;8.33;52.50
41800;BME280;27468;47.460;19.034;2023-04-28T04:52:14;101019.03;;;8.51;53.40
41800;BME280;27468;47.460;19.034;2023-04-28T04:54:40;101019.03;;;8.35;54.14
41800;BME280;27468;47.460;19.034;2023-04-28T04:57:05;101018.16;;;8.05;54.13
41800;BME280;27468;47.460;19.034;2023-04-28T04:59:31;100935.88;;;7.50;54.70
41800;BME280;27468;47.460;19.034;2023-04-28T05:01:57;100989.25;;;7.84;55.22
41800;BME280;27468;47.460;19.034;2023-04-28T05:04:22;101028.63;;;7.90;55.52
41800;BME280;27468;47.460;19.034;2023-04-28T05:06:48;101025.13;;;7.89;56.02
41800;BME280;27468;47.460;19.034;2023-04-28T05:09:13;100976.94;;;7.58;56.05
41800;BME280;27468;47.460;19.034;2023-04-28T05:11:39;100956.84;;;7.50;56.43
41800;BME280;27468;47.460;19.034;2023-04-28T05:14:04;100974.34;;;7.58;56.68
41800;BME280;27468;47.460;19.034;2023-04-28T05:16:30;101024.25;;;7.92;56.21
41800;BME280;27468;47.460;19.034;2023-04-28T05:18:55;101035.66;;;7.97;55.41
41800;BME280;27468;47.460;19.034;2023-04-28T05:21:20;101025.16;;;8.00;55.35
41800;BME280;27468;47.460;19.034;2023-04-28T05:23:46;101027.75;;;7.92;55.28
41800;BME280;27468;47.460;19.034;2023-04-28T05:26:12;101013.78;;;7.95;55.33
41800;BME280;27468;47.460;19.034;2023-04-28T05:28:40;101017.28;;;8.00;54.90
41800;BME280;27468;47.460;19.034;2023-04-28T05:31:05;100976.13;;;7.79;54.61
41800;BME280;27468;47.460;19.034;2023-04-28T05:33:31;101044.41;;;8.22;55.17
41800;BME280;27468;47.460;19.034;2023-04-28T05:35:56;101026.00;;;8.17;53.89
41800;BME280;27468;47.460;19.034;2023-04-28T05:38:22;101018.13;;;8.23;53.32
41800;BME280;27468;47.460;19.034;2023-04-28T05:40:47;100969.13;;;8.06;52.81
41800;BME280;27468;47.460;19.034;2023-04-28T05:43:13;101028.69;;;8.48;52.64
41800;BME280;27468;47.460;19.034;2023-04-28T05:45:38;100975.25;;;8.34;52.38
41800;BME280;27468;47.460;19.034;2023-04-28T05:48:04;101024.22;;;8.74;52.57
41800;BME280;27468;47.460;19.034;2023-04-28T05:50:29;101051.34;;;9.04;51.75
41800;BME280;27468;47.460;19.034;2023-04-28T05:52:55;101036.38;;;9.24;51.81
41800;BME280;27468;47.460;19.034;2023-04-28T05:55:21;101004.00;;;9.05;50.71
41800;BME280;27468;47.460;19.034;2023-04-28T05:57:47;101024.09;;;9.21;49.98
41800;BME280;27468;47.460;19.034;2023-04-28T06:00:13;101034.50;;;9.47;50.69
41800;BME280;27468;47.460;19.034;2023-04-28T06:02:39;101040.63;;;9.51;50.17
41800;BME280;27468;47.460;19.034;2023-04-28T06:05:05;101031.75;;;9.67;49.99
41800;BME280;27468;47.460;19.034;2023-04-28T06:07:31;100988.88;;;9.48;48.94
41800;BME280;27468;47.460;19.034;2023-04-28T06:09:56;100980.94;;;9.53;48.41
41800;BME280;27468;47.460;19.034;2023-04-28T06:12:22;101003.44;;;9.98;49.10
41800;BME280;27468;47.460;19.034;2023-04-28T06:14:47;100939.47;;;9.84;48.79
41800;BME280;27468;47.460;19.034;2023-04-28T06:17:13;100996.13;;;10.40;48.41
41800;BME280;27468;47.460;19.034;2023-04-28T06:19:38;101035.28;;;10.76;47.36
41800;BME280;27468;47.460;19.034;2023-04-28T06:22:03;101044.75;;;10.97;46.98
41800;BME280;27468;47.460;19.034;2023-04-28T06:24:29;101014.03;;;10.91;46.49
41800;BME280;27468;47.460;19.034;2023-04-28T06:26:55;101018.22;;;11.08;46.17
41800;BME280;27468;47.460;19.034;2023-04-28T06:29:20;101044.47;;;11.20;44.88
41800;BME280;27468;47.460;19.034;2023-04-28T06:31:48;101049.59;;;11.34;44.93
41800;BME280;27468;47.460;19.034;2023-04-28T06:34:13;101048.59;;;11.42;44.92
41800;BME280;27468;47.460;19.034;2023-04-28T06:36:39;100997.59;;;11.39;44.94
41800;BME280;27468;47.460;19.034;2023-04-28T06:39:04;101045.50;;;11.77;43.75
41800;BME280;27468;47.460;19.034;2023-04-28T06:41:30;101018.31;;;11.68;43.86
41800;BME280;27468;47.460;19.034;2023-04-28T06:43:56;101043.38;;;12.02;43.50
41800;BME280;27468;47.460;19.034;2023-04-28T06:46:21;100969.06;;;11.64;43.72
41800;BME280;27468;47.460;19.034;2023-04-28T06:48:47;101041.59;;;12.04;42.89
41800;BME280;27468;47.460;19.034;2023-04-28T06:51:13;101006.56;;;11.90;42.48
41800;BME280;27468;47.460;19.034;2023-04-28T06:53:38;101042.25;;;12.17;42.25
41800;BME280;27468;47.460;19.034;2023-04-28T06:56:04;101001.25;;;11.92;42.11
41800;BME280;27468;47.460;19.034;2023-04-28T06:58:30;100956.50;;;11.81;42.21
41800;BME280;27468;47.460;19.034;2023-04-28T07:00:55;101039.25;;;12.38;42.28
41800;BME280;27468;47.460;19.034;2023-04-28T07:03:21;101006.03;;;12.22;41.69
41800;BME280;27468;47.460;19.034;2023-04-28T07:05:46;100969.91;;;12.21;42.01
41800;BME280;27468;47.460;19.034;2023-04-28T07:08:11;101022.88;;;12.69;41.40
41800;BME280;27468;47.460;19.034;2023-04-28T07:10:37;101030.69;;;12.73;41.24
41800;BME280;27468;47.460;19.034;2023-04-28T07:13:02;100991.88;;;12.74;40.88
41800;BME280;27468;47.460;19.034;2023-04-28T07:15:28;101008.16;;;12.99;40.81
41800;BME280;27468;47.460;19.034;2023-04-28T07:17:53;100989.53;;;13.03;40.42
41800;BME280;27468;47.460;19.034;2023-04-28T07:20:19;101025.28;;;13.27;39.11
41800;BME280;27468;47.460;19.034;2023-04-28T07:22:44;101006.06;;;13.17;39.08
41800;BME280;27468;47.460;19.034;2023-04-28T07:25:10;101021.31;;;13.46;39.11
41800;BME280;27468;47.460;19.034;2023-04-28T07:27:36;101010.09;;;13.34;38.50
41800;BME280;27468;47.460;19.034;2023-04-28T07:30:01;101009.09;;;13.39;38.22
41800;BME280;27468;47.460;19.034;2023-04-28T07:32:27;100978.38;;;13.31;38.46
41800;BME280;27468;47.460;19.034;2023-04-28T07:34:52;101013.75;;;13.70;39.00
41800;BME280;27468;47.460;19.034;2023-04-28T07:37:17;101005.63;;;13.77;38.57
41800;BME280;27468;47.460;19.034;2023-04-28T07:39:43;101006.06;;;13.95;38.31
41800;BME280;27468;47.460;19.034;2023-04-28T07:42:09;101009.91;;;14.18;37.41
41800;BME280;27468;47.460;19.034;2023-04-28T07:44:34;100988.78;;;14.15;37.85
41800;BME280;27468;47.460;19.034;2023-04-28T07:47:00;100965.41;;;13.96;37.65
41800;BME280;27468;47.460;19.034;2023-04-28T07:49:29;100964.22;;;14.07;37.07
41800;BME280;27468;47.460;19.034;2023-04-28T07:51:55;101014.28;;;14.57;37.63
41800;BME280;27468;47.460;19.034;2023-04-28T07:54:21;100993.91;;;14.57;36.57
41800;BME280;27468;47.460;19.034;2023-04-28T07:56:47;100989.50;;;14.56;36.46
41800;BME280;27468;47.460;19.034;2023-04-28T07:59:12;100985.63;;;14.69;36.44
41800;BME280;27468;47.460;19.034;2023-04-28T08:01:38;100980.94;;;14.79;36.53
41800;BME280;27468;47.460;19.034;2023-04-28T08:04:04;100938.47;;;14.46;35.99
41800;BME280;27468;47.460;19.034;2023-04-28T08:06:29;100971.41;;;14.72;36.50
41800;BME280;27468;47.460;19.034;2023-04-28T08:08:55;100948.38;;;14.72;35.57
41800;BME280;27468;47.460;19.034;2023-04-28T08:11:20;100962.97;;;14.89;35.68
41800;BME280;27468;47.460;19.034;2023-04-28T08:13:47;100972.63;;;14.91;34.96
41800;BME280;27468;47.460;19.034;2023-04-28T08:16:13;100922.75;;;14.71;35.16
41800;BME280;27468;47.460;19.034;2023-04-28T08:18:39;100963.88;;;14.88;34.50
41800;BME280;27468;47.460;19.034;2023-04-28T08:21:05;100943.66;;;14.83;35.20
41800;BME280;27468;47.460;19.034;2023-04-28T08:23:30;100907.91;;;14.64;35.04
41800;BME280;27468;47.460;19.034;2023-04-28T08:25:56;100953.13;;;14.92;34.46
41800;BME280;27468;47.460;19.034;2023-04-28T08:28:22;100883.94;;;14.67;34.18
41800;BME280;27468;47.460;19.034;2023-04-28T08:30:47;100885.78;;;14.65;34.70
41800;BME280;27468;47.460;19.034;2023-04-28T08:33:13;100938.00;;;14.96;35.09
41800;BME280;27468;47.460;19.034;2023-04-28T08:35:38;100855.28;;;14.49;34.74
41800;BME280;27468;47.460;19.034;2023-04-28T08:38:05;100940.19;;;15.11;34.86
41800;BME280;27468;47.460;19.034;2023-04-28T08:40:31;100923.41;;;15.09;34.24
41800;BME280;27468;47.460;19.034;2023-04-28T08:42:58;100927.69;;;15.14;33.60
41800;BME280;27468;47.460;19.034;2023-04-28T08:45:24;100888.16;;;15.04;33.71
41800;BME280;27468;47.460;19.034;2023-04-28T08:47:50;100926.41;;;15.28;33.69
41800;BME280;27468;47.460;19.034;2023-04-28T08:50:22;100893.16;;;15.14;34.27
41800;BME280;27468;47.460;19.034;2023-04-28T08:52:48;100937.63;;;15.37;33.79
41800;BME280;27468;47.460;19.034;2023-04-28T08:55:17;100887.78;;;15.16;34.33
41800;BME280;27468;47.460;19.034;2023-04-28T08:57:48;100925.88;;;15.44;33.43
41800;BME280;27468;47.460;19.034;2023-04-28T09:00:15;100863.97;;;15.13;33.17
41800;BME280;27468;47.460;19.034;2023-04-28T09:02:41;100931.59;;;15.60;33.09
41800;BME280;27468;47.460;19.034;2023-04-28T09:05:11;100884.34;;;15.42;33.42
41800;BME280;27468;47.460;19.034;2023-04-28T09:07:37;100910.53;;;15.54;32.50
41800;BME280;27468;47.460;19.034;2023-04-28T09:10:23;100862.44;;;15.34;33.01
41800;BME280;27468;47.460;19.034;2023-04-28T09:12:53;100933.56;;;15.81;33.09
41800;BME280;27468;47.460;19.034;2023-04-28T09:17:51;100892.97;;;15.76;33.02
41800;BME280;27468;47.460;19.034;2023-04-28T09:20:21;100931.78;;;16.08;33.22
41800;BME280;27468;47.460;19.034;2023-04-28T09:22:47;100922.06;;;16.07;33.27
41800;BME280;27468;47.460;19.034;2023-04-28T09:25:13;100883.81;;;16.11;32.97
41800;BME280;27468;47.460;19.034;2023-04-28T09:27:39;100910.47;;;16.35;31.77
41800;BME280;27468;47.460;19.034;2023-04-28T09:30:05;100859.78;;;16.14;31.19
41800;BME280;27468;47.460;19.034;2023-04-28T09:32:30;100878.25;;;16.42;30.69
41800;BME280;27468;47.460;19.034;2023-04-28T09:34:56;100900.28;;;16.72;30.47
41800;BME280;27468;47.460;19.034;2023-04-28T09:37:23;100909.53;;;16.86;29.45
41800;BME280;27468;47.460;19.034;2023-04-28T09:39:51;100912.25;;;17.07;30.08
41800;BME280;27468;47.460;19.034;2023-04-28T09:47:29;100896.19;;;17.54;28.76
41800;BME280;27468;47.460;19.034;2023-04-28T09:49:58;100899.34;;;17.64;29.30
41800;BME280;27468;47.460;19.034;2023-04-28T09:52:24;100878.94;;;17.63;29.31
41800;BME280;27468;47.460;19.034;2023-04-28T09:54:51;100885.69;;;17.73;29.18
41800;BME280;27468;47.460;19.034;2023-04-28T09:57:17;100865.69;;;17.61;29.79
41800;BME280;27468;47.460;19.034;2023-04-28T09:59:51;100869.34;;;17.59;30.09
41800;BME280;27468;47.460;19.034;2023-04-28T10:02:18;100872.28;;;17.74;30.10
41800;BME280;27468;47.460;19.034;2023-04-28T10:04:46;100889.69;;;17.83;29.79
41800;BME280;27468;47.460;19.034;2023-04-28T10:07:12;100846.09;;;17.62;29.35
41800;BME280;27468;47.460;19.034;2023-04-28T10:09:39;100880.97;;;17.79;29.15
41800;BME280;27468;47.460;19.034;2023-04-28T10:12:09;100862.88;;;17.64;28.76
41800;BME280;27468;47.460;19.034;2023-04-28T10:14:35;100863.06;;;17.60;28.67
41800;BME280;27468;47.460;19.034;2023-04-28T10:17:02;100808.38;;;17.29;29.08
41800;BME280;27468;47.460;19.034;2023-04-28T10:19:28;100861.59;;;17.53;29.26
41800;BME280;27468;47.460;19.034;2023-04-28T10:24:31;100862.81;;;17.44;30.15
41800;BME280;27468;47.460;19.034;2023-04-28T10:27:06;100802.41;;;17.01;29.54
41800;BME280;27468;47.460;19.034;2023-04-28T10:29:33;100793.59;;;16.99;29.45
41800;BME280;27468;47.460;19.034;2023-04-28T10:32:19;100835.25;;;17.23;29.80
41800;BME280;27468;47.460;19.034;2023-04-28T10:34:45;100809.09;;;17.11;30.50
41800;BME280;27468;47.460;19.034;2023-04-28T10:37:11;100765.59;;;16.89;29.58
41800;BME280;27468;47.460;19.034;2023-04-28T10:39:39;100832.72;;;17.20;30.24
41800;BME280;27468;47.460;19.034;2023-04-28T10:42:50;100827.22;;;17.25;30.28
41800;BME280;27468;47.460;19.034;2023-04-28T10:46:20;100823.63;;;17.26;30.19
41800;BME280;27468;47.460;19.034;2023-04-28T10:56:09;100783.13;;;17.80;29.58
41800;BME280;27468;47.460;19.034;2023-04-28T10:58:37;100756.72;;;17.74;29.00
41800;BME280;27468;47.460;19.034;2023-04-28T11:03:53;100790.69;;;18.30;28.36
41800;BME280;27468;47.460;19.034;2023-04-28T11:14:38;100766.66;;;18.69;27.16
41800;BME280;27468;47.460;19.034;2023-04-28T11:17:08;100779.06;;;18.89;27.44
41800;BME280;27468;47.460;19.034;2023-04-28T11:19:43;100737.56;;;18.82;28.09
41800;BME280;27468;47.460;19.034;2023-04-28T11:24:39;100779.38;;;19.19;28.36
41800;BME280;27468;47.460;19.034;2023-04-28T11:27:05;100771.84;;;19.27;27.62
41800;BME280;27468;47.460;19.034;2023-04-28T11:31:57;100775.72;;;19.38;27.83
41800;BME280;27468;47.460;19.034;2023-04-28T11:34:23;100781.69;;;19.43;27.04
41800;BME280;27468;47.460;19.034;2023-04-28T11:36:49;100752.53;;;19.39;27.27
41800;BME280;27468;47.460;19.034;2023-04-28T11:39:24;100760.31;;;19.43;26.99
41800;BME280;27468;47.460;19.034;2023-04-28T11:41:52;100781.13;;;19.56;27.35
41800;BME280;27468;47.460;19.034;2023-04-28T11:44:20;100757.22;;;19.53;27.55
41800;BME280;27468;47.460;19.034;2023-04-28T11:46:55;100775.53;;;19.60;27.64
41800;BME280;27468;47.460;19.034;2023-04-28T11:49:25;100765.72;;;19.61;27.34
41800;BME280;27468;47.460;19.034;2023-04-28T11:51:53;100759.84;;;19.70;27.22
41800;BME280;27468;47.460;19.034;2023-04-28T11:54:23;100759.63;;;19.74;27.00
41800;BME280;27468;47.460;19.034;2023-04-28T11:56:50;100763.78;;;19.80;26.63
41800;BME280;27468;47.460;19.034;2023-04-28T11:59:16;100748.44;;;19.66;26.95
41800;BME280;27468;47.460;19.034;2023-04-28T12:01:48;100747.28;;;19.72;27.09
41800;BME280;27468;47.460;19.034;2023-04-28T12:04:25;100736.03;;;19.65;26.77
41800;BME280;27468;47.460;19.034;2023-04-28T12:07:17;100752.69;;;19.70;26.95
41800;BME280;27468;47.460;19.034;2023-04-28T12:10:09;100756.47;;;19.84;26.83
41800;BME280;27468;47.460;19.034;2023-04-28T12:12:35;100720.56;;;19.55;27.01
41800;BME280;27468;47.460;19.034;2023-04-28T12:15:05;100707.78;;;19.42;26.81
41800;BME280;27468;47.460;19.034;2023-04-28T12:17:38;100743.41;;;19.77;26.85
41800;BME280;27468;47.460;19.034;2023-04-28T12:20:06;100735.53;;;19.74;26.57
41800;BME280;27468;47.460;19.034;2023-04-28T12:22:43;100738.84;;;19.79;26.79
41800;BME280;27468;47.460;19.034;2023-04-28T12:25:11;100721.63;;;19.85;26.65
41800;BME280;27468;47.460;19.034;2023-04-28T12:27:38;100728.91;;;19.99;27.34
41800;BME280;27468;47.460;19.034;2023-04-28T12:30:28;100728.44;;;19.91;27.31
41800;BME280;27468;47.460;19.034;2023-04-28T12:32:54;100724.22;;;19.87;27.52
41800;BME280;27468;47.460;19.034;2023-04-28T12:35:21;100700.91;;;19.89;26.98
41800;BME280;27468;47.460;19.034;2023-04-28T12:37:47;100685.03;;;19.86;27.13
41800;BME280;27468;47.460;19.034;2023-04-28T12:40:13;100688.88;;;19.80;27.22
41800;BME280;27468;47.460;19.034;2023-04-28T12:42:39;100702.94;;;20.01;27.44
41800;BME280;27468;47.460;19.034;2023-04-28T12:45:05;100697.34;;;20.05;27.51
41800;BME280;27468;47.460;19.034;2023-04-28T12:47:31;100677.81;;;20.03;27.47
41800;BME280;27468;47.460;19.034;2023-04-28T12:49:56;100640.72;;;19.80;27.91
41800;BME280;27468;47.460;19.034;2023-04-28T12:52:22;100655.25;;;19.92;27.63
41800;BME280;27468;47.460;19.034;2023-04-28T12:54:47;100660.47;;;20.10;27.70
41800;BME280;27468;47.460;19.034;2023-04-28T12:57:14;100613.81;;;19.83;27.72
41800;BME280;27468;47.460;19.034;2023-04-28T12:59:40;100628.16;;;19.98;27.12
41800;BME280;27468;47.460;19.034;2023-04-28T13:02:06;100630.00;;;20.13;28.16
41800;BME280;27468;47.460;19.034;2023-04-28T13:04:31;100610.84;;;20.21;27.93
41800;BME280;27468;47.460;19.034;2023-04-28T13:06:57;100622.66;;;20.32;27.67
41800;BME280;27468;47.460;19.034;2023-04-28T13:09:23;100638.75;;;20.48;27.02
41800;BME280;27468;47.460;19.034;2023-04-28T13:11:49;100630.72;;;20.48;26.71
41800;BME280;27468;47.460;19.034;2023-04-28T13:14:14;100630.72;;;20.48;26.90
41800;BME280;27468;47.460;19.034;2023-04-28T13:16:40;100634.31;;;20.31;27.22